Arcadia, Pennsylvania
Current Conditions -  °F | °C
As of 3:55 AM on Wednesday 22 Oct 2014 (Local Time) from KIDI Reporting Station
Overcast Overcast  
Wind Chill: 46°   Ceiling: 800
Heat Index: 48°   Visibility: 10mi
Dew Point: 48°   Wind: 6mph
Humidity: 100%   Direction: 360°N
Pressure: 30.04"   Gusts: NA
Location:  40.78°N, 78.85°W
Report Text: KIDI 220755Z AUTO 36005KT 10SM BKN008 OVC013 09/09 A3004 RMK A01
Loading
Personal Weather Stations






























Interactive Weather Map
Tropical Storm Tracking
New forecast layout! Learn more

10-Day Weather Forecast

Advertisements
Track Severe Weather on mobile